Time;durP1;ratioP1;P1;durP2;ratioP2;P2;SDS_P1;SDS_P2;PMS_P1;PMS_P2;Temp;Humidity;BMP_temperature;BMP_pressure;BME280_temperature;BME280_humidity;BME280_pressure;Samples;Min_cycle;Max_cycle;Signal;HPM_P1;HPM_P2
2021/07/15 00:00:16;;;;;;;1.06;0.10;;;;;;;15.87;97.23;98720.09;1991527;81;21210;-75
2021/07/15 00:03:22;;;;;;;0.54;0.10;;;;;;;15.88;97.24;98719.19;1987167;79;20902;-75
2021/07/15 00:06:25;;;;;;;5.65;0.11;;;;;;;15.87;97.17;98718.31;1987629;81;20164;-75
2021/07/15 00:09:28;;;;;;;1.74;0.10;;;;;;;15.90;97.11;98722.59;1988117;81;20192;-74
2021/07/15 00:12:30;;;;;;;1.44;0.10;;;;;;;15.88;96.93;98722.66;1990350;81;20184;-74
2021/07/15 00:15:37;;;;;;;3.03;0.20;;;;;;;15.88;97.07;98721.81;1987685;79;23557;-75
2021/07/15 00:18:45;;;;;;;1.99;0.10;;;;;;;15.86;97.04;98721.00;1993958;81;20234;-75
2021/07/15 00:21:49;;;;;;;1.04;0.10;;;;;;;15.85;97.06;98721.91;1992171;81;20163;-74
2021/07/15 00:24:53;;;;;;;0.51;0.20;;;;;;;15.85;97.08;98719.28;1992204;81;20232;-74
2021/07/15 00:27:56;;;;;;;4.60;0.13;;;;;;;15.86;97.08;98724.47;1992228;81;20198;-74
2021/07/15 00:30:58;;;;;;;1.77;0.19;;;;;;;15.84;97.31;98722.81;1988794;79;20467;-74
2021/07/15 00:34:02;;;;;;;3.41;0.20;;;;;;;15.86;97.44;98726.25;1984587;81;20664;-73
2021/07/15 00:37:05;;;;;;;1.73;0.10;;;;;;;15.86;97.49;98718.38;1981916;81;20193;-73
2021/07/15 00:40:09;;;;;;;0.61;0.10;;;;;;;15.84;97.42;98715.81;1981954;81;20202;-75
2021/07/15 00:43:12;;;;;;;2.20;0.20;;;;;;;15.83;97.33;98716.75;1982468;81;20176;-73
2021/07/15 00:46:15;;;;;;;3.41;0.16;;;;;;;15.80;97.37;98698.53;1983464;79;20836;-74
2021/07/15 00:49:18;;;;;;;0.45;0.20;;;;;;;15.83;97.45;98710.66;1990142;81;20310;-74
2021/07/15 00:52:21;;;;;;;2.75;0.11;;;;;;;15.83;97.36;98702.78;1986588;81;20195;-74
2021/07/15 00:55:33;;;;;;;3.85;0.26;;;;;;;15.83;97.33;98711.50;1987170;81;20212;-74
2021/07/15 00:58:36;;;;;;;0.40;0.20;;;;;;;15.83;97.36;98716.75;1987064;81;20193;-72
2021/07/15 01:01:39;;;;;;;0.20;0.20;;;;;;;15.83;97.54;98718.50;1983590;79;20440;-74
2021/07/15 01:04:42;;;;;;;0.41;0.30;;;;;;;15.83;97.49;98726.34;1982571;81;20679;-73
2021/07/15 01:07:44;;;;;;;2.26;0.20;;;;;;;15.83;97.57;98728.97;1981825;81;20695;-73
2021/07/15 01:10:58;;;;;;;2.56;0.30;;;;;;;15.81;97.72;98731.66;1981859;81;20180;-72
2021/07/15 01:14:07;;;;;;;0.82;0.30;;;;;;;15.84;97.78;98738.53;1981783;81;20244;-75
2021/07/15 01:17:15;;;;;;;1.82;0.30;;;;;;;15.83;97.65;98729.81;1984914;79;22187;-73
2021/07/15 01:20:41;;;;;;;1.18;0.32;;;;;;;15.82;97.56;98727.28;1986578;81;20164;-74
2021/07/15 01:23:53;;;;;;;0.79;0.30;;;;;;;15.81;97.64;98736.88;1986563;81;20561;-73
2021/07/15 01:27:14;;;;;;;2.24;0.40;;;;;;;15.81;97.69;98731.66;1990204;81;20257;-73
2021/07/15 01:30:28;;;;;;;1.60;0.30;;;;;;;15.81;97.81;98729.03;1986906;81;20187;-73
2021/07/15 01:33:36;;;;;;;0.91;0.40;;;;;;;15.83;97.79;98727.22;1982597;79;21036;-73
2021/07/15 01:36:45;;;;;;;0.61;0.40;;;;;;;15.85;97.65;98721.91;1981905;82;20180;-73
2021/07/15 01:39:50;;;;;;;0.40;0.40;;;;;;;15.81;97.49;98725.56;1982182;82;20234;-74
2021/07/15 01:43:01;;;;;;;0.45;0.40;;;;;;;15.81;97.71;98723.81;1981229;81;20668;-73
2021/07/15 01:46:05;;;;;;;1.84;0.45;;;;;;;15.81;97.81;98717.72;1981988;81;20485;-73
2021/07/15 01:49:08;;;;;;;5.35;0.60;;;;;;;15.80;97.76;98721.22;1987043;81;20217;-73
2021/07/15 01:52:11;;;;;;;0.51;0.50;;;;;;;15.80;97.80;98721.22;1986693;81;20197;-73
2021/07/15 01:55:15;;;;;;;1.48;0.40;;;;;;;15.81;97.67;98725.56;1987409;81;20244;-74
2021/07/15 01:58:18;;;;;;;3.39;0.50;;;;;;;15.80;97.64;98721.22;1986519;81;20254;-73
2021/07/15 02:01:23;;;;;;;2.26;0.73;;;;;;;15.78;97.63;98723.88;1983828;79;20200;-73
2021/07/15 02:04:29;;;;;;;3.08;0.60;;;;;;;15.78;97.57;98725.66;1983952;81;20287;-73
2021/07/15 02:07:33;;;;;;;0.85;0.46;;;;;;;15.78;97.47;98729.13;1982845;81;20405;-74
2021/07/15 02:10:36;;;;;;;1.16;0.60;;;;;;;15.80;97.48;98731.69;1984798;81;20400;-74
2021/07/15 02:13:41;;;;;;;0.82;0.50;;;;;;;15.80;97.59;98729.06;1983610;81;20660;-74
2021/07/15 02:16:48;;;;;;;0.75;0.55;;;;;;;15.80;97.59;98719.47;1986117;78;20477;-74
2021/07/15 02:19:51;;;;;;;1.44;0.59;;;;;;;15.83;97.56;98723.75;1988437;81;20180;-74
2021/07/15 02:22:55;;;;;;;0.52;0.52;;;;;;;15.82;97.64;98725.50;1988508;81;20199;-74
2021/07/15 02:25:59;;;;;;;0.65;0.64;;;;;;;15.85;97.70;98735.00;1989195;81;20346;-74
2021/07/15 02:29:03;;;;;;;2.65;0.70;;;;;;;15.85;97.71;98738.47;1987826;81;20269;-74
2021/07/15 02:32:11;;;;;;;3.88;0.80;;;;;;;15.85;97.75;98732.38;1984533;81;20595;-74
2021/07/15 02:35:16;;;;;;;;;;;;;;;15.85;97.76;98733.25;1983835;81;20208;-74
2021/07/15 02:38:22;;;;;;;0.82;0.80;;;;;;;15.87;97.65;98730.56;1983867;81;20131;-74
2021/07/15 02:41:25;;;;;;;1.65;0.80;;;;;;;15.85;97.68;98738.47;1984288;81;20168;-74
2021/07/15 02:44:28;;;;;;;3.86;0.71;;;;;;;15.85;97.70;98740.25;1983517;81;20343;-75
2021/07/15 02:47:31;;;;;;;5.21;0.73;;;;;;;15.86;97.58;98734.09;1982909;81;21215;-75
2021/07/15 02:50:34;;;;;;;1.50;0.77;;;;;;;15.80;97.44;98737.78;1983441;81;20316;-74
2021/07/15 02:53:37;;;;;;;0.81;0.50;;;;;;;15.78;97.56;98738.72;1984258;81;20208;-75
2021/07/15 02:56:54;;;;;;;0.51;0.50;;;;;;;15.70;97.18;98742.50;1984001;82;20169;-75
2021/07/15 03:00:09;;;;;;;1.06;0.60;;;;;;;15.63;97.20;98738.41;1984247;81;20238;-74
2021/07/15 03:03:30;;;;;;;1.50;0.70;;;;;;;15.58;96.92;98744.66;1978367;82;20754;-74
2021/07/15 03:06:41;;;;;;;1.41;0.80;;;;;;;15.51;96.79;98748.41;1978204;82;20283;-75
2021/07/15 03:09:48;;;;;;;6.46;0.94;;;;;;;15.46;96.86;98747.72;1978557;82;20173;-74
2021/07/15 11:17:58;;;;;;;7.63;6.88;;;;;;;22.31;64.91;98995.72;1995807;78;22021;-75
2021/07/15 11:21:26;;;;;;;7.36;5.99;;;;;;;22.64;65.85;99002.59;1992524;81;20221;-76
2021/07/15 11:24:29;;;;;;;7.32;6.61;;;;;;;22.67;62.72;99003.25;1997971;81;20204;-76
2021/07/15 11:27:45;;;;;;;8.59;6.60;;;;;;;22.73;63.14;99008.19;1997959;81;20198;-76
2021/07/15 11:30:50;;;;;;;5.85;5.35;;;;;;;22.77;64.72;99016.78;1995662;78;22021;-76
2021/07/15 11:33:53;;;;;;;6.70;6.10;;;;;;;22.60;64.22;99016.00;1994662;81;20183;-77
2021/07/15 11:37:25;;;;;;;6.90;6.11;;;;;;;22.51;64.54;99019.19;1998141;81;20311;-76
2021/07/15 11:49:17;;;;;;;5.34;3.71;;;;;;;22.71;69.00;99027.75;1995651;81;20197;-77
2021/07/15 11:52:20;;;;;;;2.86;2.19;;;;;;;23.28;67.46;99030.47;1993570;81;20204;-77
2021/07/15 11:55:30;;;;;;;1.86;1.73;;;;;;;23.42;63.58;99025.16;1993775;81;20175;-77
2021/07/15 11:58:39;;;;;;;1.77;1.67;;;;;;;23.68;63.56;99020.88;1994534;81;20238;-78
2021/07/15 12:01:42;;;;;;;2.00;1.90;;;;;;;23.90;63.02;99031.84;1995874;78;22270;-77
2021/07/15 12:05:18;;;;;;;1.60;1.42;;;;;;;23.83;62.75;99027.84;1999617;81;20802;-77
2021/07/15 12:08:22;;;;;;;2.25;1.77;;;;;;;23.63;61.76;99038.88;1998994;81;20974;-77
2021/07/15 12:11:25;;;;;;;5.76;2.05;;;;;;;23.41;64.62;99042.00;1998942;81;20307;-77
2021/07/15 12:14:28;;;;;;;1.73;1.63;;;;;;;23.33;64.68;99045.13;2000305;81;20808;-77
2021/07/15 12:17:35;;;;;;;1.30;1.20;;;;;;;23.27;64.56;99040.22;1998853;78;21411;-77
2021/07/15 12:29:11;;;;;;;0.75;0.75;;;;;;;23.40;62.90;99040.31;1994521;81;20353;-77
2021/07/15 12:40:34;;;;;;;3.59;0.40;;;;;;;24.24;61.54;99043.75;1993997;81;20301;-78
2021/07/15 12:43:58;;;;;;;1.42;0.38;;;;;;;24.29;62.45;99041.66;1995045;81;20191;-77
2021/07/15 12:47:06;;;;;;;0.41;0.30;;;;;;;24.18;61.43;99040.63;1994161;79;21190;-78
2021/07/15 12:50:23;;;;;;;0.47;0.30;;;;;;;24.14;62.08;99042.63;1993410;81;20637;-77
2021/07/15 12:56:47;;;;;;;2.42;0.26;;;;;;;24.39;62.74;99053.34;1996268;81;20187;-77
2021/07/15 12:59:54;;;;;;;0.56;0.56;;;;;;;24.43;60.90;99053.19;1994144;81;20179;-77
2021/07/15 13:03:02;;;;;;;0.29;0.21;;;;;;;24.39;61.14;99052.50;1990981;78;22075;-77
2021/07/15 13:06:12;;;;;;;0.64;0.20;;;;;;;24.35;61.62;99045.72;1994294;81;20211;-77
2021/07/15 13:16:15;;;;;;;0.24;0.20;;;;;;;24.10;62.51;99041.16;1995672;81;22304;-77
2021/07/15 13:28:11;;;;;;;1.49;0.20;;;;;;;24.83;58.33;99032.75;1995579;81;20204;-78
2021/07/15 13:31:16;;;;;;;0.50;0.30;;;;;;;25.18;58.51;99019.72;1998789;81;21129;-78
2021/07/15 13:34:50;;;;;;;1.54;0.28;;;;;;;25.37;58.68;99020.09;1999910;81;20300;-78
2021/07/15 13:38:05;;;;;;;1.69;0.49;;;;;;;25.72;59.18;99024.75;2000940;81;20198;-79
2021/07/15 13:41:32;;;;;;;2.05;0.50;;;;;;;26.02;57.97;99026.94;1999845;81;20312;-78
2021/07/15 13:44:35;;;;;;;1.61;0.46;;;;;;;26.03;56.70;99024.19;2095645;70;20181;-78
2021/07/15 13:47:44;;;;;;;1.29;0.77;;;;;;;25.68;56.23;99032.09;2005444;78;25927;-78
2021/07/15 13:51:06;;;;;;;0.47;0.30;;;;;;;25.36;58.20;99030.84;2010256;80;20328;-78
2021/07/15 13:54:10;;;;;;;1.44;0.30;;;;;;;25.03;58.50;99031.41;2010006;80;20215;-78
2021/07/15 13:57:13;;;;;;;0.98;0.30;;;;;;;25.15;59.77;99033.22;2008474;80;20962;-78
2021/07/15 14:00:23;;;;;;;0.51;0.30;;;;;;;25.33;58.94;99033.72;2005509;80;20210;-76
2021/07/15 14:03:27;;;;;;;0.76;0.31;;;;;;;25.76;59.59;99028.88;2008968;80;21037;-77
2021/07/15 14:06:35;;;;;;;0.41;0.30;;;;;;;25.92;57.13;99034.78;2009342;80;20238;-77
2021/07/15 14:09:45;;;;;;;4.95;0.30;;;;;;;25.83;55.60;99027.44;2006838;80;20365;-77
2021/07/15 14:12:49;;;;;;;0.51;0.36;;;;;;;25.90;56.18;99036.69;2009436;80;20286;-77
2021/07/15 14:15:59;;;;;;;2.99;0.50;;;;;;;25.81;56.60;99026.72;2008727;78;25970;-77
2021/07/15 14:23:23;;;;;;;1.20;0.40;;;;;;;25.18;58.90;99017.91;2007435;80;20809;-76
2021/07/15 14:26:27;;;;;;;;;;;;;;;25.59;57.30;99025.59;2008717;80;20223;-76
2021/07/15 14:29:38;;;;;;;0.80;0.20;;;;;;;25.86;55.92;99011.28;2009151;80;20124;-76
2021/07/15 14:32:42;;;;;;;1.35;0.30;;;;;;;25.94;55.73;99024.88;2007898;77;20747;-77
2021/07/15 14:35:46;;;;;;;2.79;0.28;;;;;;;26.10;56.64;99017.44;2007987;80;20285;-77
2021/07/15 14:38:49;;;;;;;1.46;0.40;;;;;;;26.02;54.96;99016.31;2009075;80;20676;-76
2021/07/15 14:41:53;;;;;;;0.64;0.40;;;;;;;25.72;53.81;99017.59;2008371;80;20200;-77
2021/07/15 14:44:57;;;;;;;1.84;0.35;;;;;;;25.72;56.12;99009.63;2009433;80;20277;-76
2021/07/15 14:48:00;;;;;;;1.09;0.40;;;;;;;25.98;54.78;99009.53;2007894;77;20972;-76
2021/07/15 14:51:03;;;;;;;0.32;0.30;;;;;;;26.36;54.49;99014.69;2007947;80;20295;-77
2021/07/15 14:54:07;;;;;;;0.44;0.30;;;;;;;26.72;53.56;99014.53;2100213;70;20223;-77
2021/07/15 14:57:10;;;;;;;0.36;0.36;;;;;;;26.85;53.44;99025.13;2001983;80;20199;-77
2021/07/15 15:00:15;;;;;;;0.30;0.30;;;;;;;26.59;52.07;99021.78;2001442;80;21010;-76
2021/07/15 15:03:19;;;;;;;2.89;0.35;;;;;;;26.45;52.60;99027.31;2008223;78;29414;-76
2021/07/15 15:06:23;;;;;;;0.41;0.40;;;;;;;26.53;53.65;99029.38;2007455;80;20189;-77
2021/07/15 15:09:27;;;;;;;0.30;0.30;;;;;;;26.72;53.68;99027.00;2008003;80;20201;-77
2021/07/15 15:12:33;;;;;;;0.40;0.40;;;;;;;26.65;52.91;99023.13;2007276;80;20195;-77
2021/07/15 15:15:36;;;;;;;1.52;0.43;;;;;;;26.48;51.99;99029.75;2007044;79;22221;-77
2021/07/15 15:18:39;;;;;;;0.44;0.40;;;;;;;26.28;53.60;99038.34;2005633;80;20332;-77
2021/07/15 15:21:43;;;;;;;0.40;0.40;;;;;;;26.17;54.35;99037.31;2008173;80;20165;-77
2021/07/15 15:24:47;;;;;;;1.10;0.47;;;;;;;26.17;54.83;99036.47;2011323;80;20181;-77
2021/07/15 15:27:51;;;;;;;0.77;0.40;;;;;;;25.93;55.35;99035.63;2008382;80;20216;-76
2021/07/15 15:30:55;;;;;;;0.40;0.40;;;;;;;25.57;55.82;99031.97;2005943;78;20331;-76
2021/07/15 15:33:59;;;;;;;0.93;0.40;;;;;;;25.29;56.71;99035.72;2085461;70;20183;-76
2021/07/15 15:37:14;;;;;;;0.73;0.40;;;;;;;24.99;57.03;99033.41;2008123;75;20205;31
2021/07/15 15:40:17;;;;;;;2.34;0.44;;;;;;;24.80;57.46;99044.44;1984394;81;20306;-77
2021/07/15 15:43:20;;;;;;;0.79;0.50;;;;;;;24.61;57.96;99033.38;1986876;81;20659;-77
2021/07/15 15:46:30;;;;;;;0.40;0.36;;;;;;;24.51;58.23;99032.28;1989233;78;22147;-77
2021/07/15 15:49:35;;;;;;;0.40;0.40;;;;;;;24.50;59.57;99047.34;1990014;81;20225;-77
2021/07/15 15:52:42;;;;;;;0.88;0.76;;;;;;;24.47;60.56;99041.41;1986090;81;20289;-77
2021/07/15 15:55:45;;;;;;;1.60;0.50;;;;;;;24.49;61.17;99039.50;1990033;81;20188;-77
2021/07/15 15:58:48;;;;;;;0.50;0.50;;;;;;;24.53;61.23;99044.47;1989171;81;20200;-77
2021/07/15 16:01:51;;;;;;;1.33;0.49;;;;;;;24.55;60.61;99050.53;1987845;81;20197;-77
2021/07/15 16:05:02;;;;;;;0.63;0.60;;;;;;;24.59;60.92;99054.69;1989369;81;20233;-77
2021/07/15 16:08:05;;;;;;;;;;;;;;;24.54;60.47;99050.63;1989119;81;20627;-77
2021/07/15 16:11:12;;;;;;;1.14;0.60;;;;;;;24.40;60.73;99047.09;1989435;81;20060;-77
2021/07/15 16:14:15;;;;;;;1.01;0.63;;;;;;;24.23;61.32;99057.94;1990376;81;20236;-77
2021/07/15 16:17:19;;;;;;;1.23;0.54;;;;;;;24.04;60.74;99055.63;1988865;79;22129;-77
2021/07/15 16:29:13;;;;;;;1.46;0.52;;;;;;;23.83;61.76;99042.91;1990540;81;20602;-79
2021/07/15 16:32:19;;;;;;;2.20;0.60;;;;;;;24.19;62.01;99039.69;1990686;79;20808;-83
2021/07/15 16:35:29;;;;;;;1.01;0.60;;;;;;;24.53;61.84;99038.31;2001953;81;20210;-80
2021/07/15 16:38:50;;;;;;;1.46;0.50;;;;;;;24.91;60.25;99049.84;2018441;70;20171;-81
2021/07/15 16:41:53;;;;;;;1.55;0.56;;;;;;;25.15;58.81;99043.84;2002147;81;20220;-79
2021/07/15 16:44:59;;;;;;;1.00;0.60;;;;;;;25.19;57.65;99046.16;2001914;81;20214;-78
2021/07/15 16:48:03;;;;;;;0.51;0.50;;;;;;;25.11;58.19;99050.31;2006428;78;20233;-79
2021/07/15 16:51:05;;;;;;;1.16;0.51;;;;;;;24.97;57.88;99044.13;2003968;81;20281;-78
2021/07/15 16:54:08;;;;;;;2.47;0.60;;;;;;;24.85;59.02;99055.59;2006142;81;20201;-78
2021/07/15 16:57:12;;;;;;;1.21;0.50;;;;;;;24.67;60.76;99051.53;2005997;81;20257;-80
2021/07/15 17:00:17;;;;;;;0.69;0.49;;;;;;;24.54;60.30;99056.78;2009089;80;20761;-80
2021/07/15 17:03:41;;;;;;;1.35;0.50;;;;;;;24.35;60.70;99054.53;2011445;80;20202;-79
2021/07/15 17:06:44;;;;;;;0.90;0.60;;;;;;;24.20;61.07;99050.19;2011690;80;20177;-79
2021/07/15 17:09:47;;;;;;;3.86;0.56;;;;;;;24.07;61.60;99049.31;2011298;80;20371;-77
2021/07/15 17:12:50;;;;;;;1.09;0.59;;;;;;;23.88;62.83;99048.75;2010436;80;20185;-79
2021/07/15 17:15:54;;;;;;;0.75;0.60;;;;;;;23.78;63.18;99054.69;2008300;78;22294;-78
2021/07/15 17:19:10;;;;;;;0.98;0.66;;;;;;;23.61;62.87;99062.84;2005602;81;20162;-78
2021/07/15 17:22:32;;;;;;;0.66;0.60;;;;;;;23.57;65.04;99068.44;2005015;81;20242;-78
2021/07/15 17:25:35;;;;;;;0.84;0.60;;;;;;;23.51;65.20;99073.13;2085471;70;20179;-79
2021/07/15 17:28:38;;;;;;;2.22;0.70;;;;;;;23.46;62.92;99071.72;1994407;81;20197;-79
2021/07/15 17:31:41;;;;;;;1.98;0.70;;;;;;;23.38;63.45;99066.91;1997340;78;20194;-76
2021/07/15 17:34:44;;;;;;;4.51;0.90;;;;;;;23.31;63.88;99075.31;2000895;81;20569;-77
2021/07/15 17:37:48;;;;;;;1.61;0.74;;;;;;;23.17;63.33;99078.84;2002587;81;20166;-78
2021/07/15 17:40:51;;;;;;;2.21;0.70;;;;;;;23.00;63.65;99063.97;2000954;81;20190;-81
2021/07/15 17:43:54;;;;;;;2.70;0.79;;;;;;;22.79;64.38;99068.69;2000125;81;20654;-78
2021/07/15 17:46:59;;;;;;;2.40;0.70;;;;;;;22.60;65.07;99079.50;1998259;78;21695;-78
2021/07/15 17:50:04;;;;;;;4.24;0.82;;;;;;;22.48;66.21;99074.97;1998764;81;20198;-78
2021/07/15 17:53:07;;;;;;;6.35;0.80;;;;;;;22.26;68.06;99085.94;1998837;81;20178;-77
2021/07/15 17:56:10;;;;;;;3.58;0.90;;;;;;;22.10;69.70;99087.75;1999119;81;20205;-77
2021/07/15 17:59:13;;;;;;;3.26;0.94;;;;;;;21.89;71.11;99099.44;1999687;81;20194;-78
2021/07/15 18:02:17;;;;;;;6.03;0.86;;;;;;;21.75;72.47;99096.75;2001629;81;20182;-79
2021/07/15 18:05:21;;;;;;;4.94;0.90;;;;;;;21.67;73.18;99103.28;2000165;81;20204;-79
2021/07/15 18:08:25;;;;;;;4.86;0.95;;;;;;;21.57;72.21;99098.59;1999234;81;20174;-77
2021/07/15 18:11:28;;;;;;;1.41;0.85;;;;;;;21.50;72.34;99095.41;2001494;81;20224;-77
2021/07/15 18:14:31;;;;;;;2.64;0.82;;;;;;;21.41;73.06;99101.19;2003719;81;20178;-80
2021/07/15 18:17:34;;;;;;;1.81;0.77;;;;;;;21.34;73.90;99102.44;2001927;81;24536;-82
2021/07/15 18:20:50;;;;;;;1.95;1.08;;;;;;;21.29;73.81;99112.41;2000556;81;20213;-78
2021/07/15 18:23:57;;;;;;;1.90;1.00;;;;;;;21.26;73.25;99121.34;1999420;81;20186;-81
2021/07/15 18:27:00;;;;;;;1.17;1.13;;;;;;;21.22;73.58;99122.41;2008880;80;20146;-81
2021/07/15 18:30:06;;;;;;;1.39;0.99;;;;;;;21.16;73.73;99127.13;2004470;81;20202;-75
2021/07/15 18:33:10;;;;;;;2.16;1.40;;;;;;;21.11;74.80;99122.94;2003960;78;24293;-79
2021/07/15 18:36:13;;;;;;;7.53;1.25;;;;;;;21.05;74.75;99133.00;2005104;81;20224;-82
2021/07/15 18:39:20;;;;;;;4.09;1.10;;;;;;;21.00;75.14;99125.28;2005875;81;20206;-79
2021/07/15 18:42:24;;;;;;;4.10;1.34;;;;;;;20.94;75.57;99136.16;2000390;81;20292;-78
2021/07/15 18:45:28;;;;;;;2.74;0.89;;;;;;;20.88;76.19;99138.28;1998882;78;20259;-76
2021/07/15 18:48:36;;;;;;;5.59;1.19;;;;;;;20.81;77.21;99142.97;1999953;81;20215;-77
2021/07/15 18:51:41;;;;;;;6.93;1.46;;;;;;;20.73;77.99;99139.88;1998699;81;20210;-77
2021/07/15 18:54:47;;;;;;;5.90;1.90;;;;;;;20.66;78.58;99141.13;1999308;81;20677;-78
2021/07/15 18:57:52;;;;;;;4.81;1.34;;;;;;;20.61;79.79;99140.47;1999694;81;20208;-77
2021/07/15 19:00:57;;;;;;;3.03;1.25;;;;;;;20.50;81.01;99138.38;1998007;78;20640;-77
2021/07/15 19:04:01;;;;;;;3.03;1.30;;;;;;;20.43;81.73;99144.88;1998893;81;20210;-77
2021/07/15 19:07:05;;;;;;;4.51;1.55;;;;;;;20.40;82.20;99152.91;1999678;81;20259;-77
2021/07/15 19:10:35;;;;;;;3.94;1.36;;;;;;;20.33;82.77;99159.41;1999152;81;20316;-77
2021/07/15 19:13:38;;;;;;;4.93;1.31;;;;;;;20.30;83.60;99154.28;1999290;81;20214;-77
2021/07/15 19:16:41;;;;;;;2.74;1.40;;;;;;;20.30;84.13;99160.41;1998125;81;21258;-77
2021/07/15 19:23:45;;;;;;;1.88;1.77;;;;;;;20.30;85.96;99172.75;1998715;81;20249;-78
2021/07/15 19:26:49;;;;;;;4.31;1.79;;;;;;;20.29;86.60;99169.25;1994263;81;20204;-78
2021/07/15 19:29:53;;;;;;;1.91;1.80;;;;;;;20.24;86.45;99176.50;2001696;81;20170;-77
2021/07/15 19:32:57;;;;;;;5.45;1.89;;;;;;;20.15;86.46;99179.59;1998913;78;20296;-77
2021/07/15 19:36:01;;;;;;;2.29;1.54;;;;;;;20.11;86.62;99181.53;2002708;81;20201;-77
2021/07/15 19:39:04;;;;;;;4.38;1.40;;;;;;;20.04;86.48;99193.25;1998726;81;20192;-78
2021/07/15 19:42:09;;;;;;;5.32;1.49;;;;;;;19.96;86.34;99194.56;2003997;81;20182;-81
2021/07/15 19:49:28;;;;;;;3.03;1.25;;;;;;;19.69;86.65;99210.66;2008200;81;20273;-82
2021/07/15 19:52:32;;;;;;;2.56;1.36;;;;;;;19.54;87.02;99220.09;2005923;81;20204;-83
2021/07/15 19:55:35;;;;;;;2.63;1.81;;;;;;;19.43;87.46;99237.28;2007382;81;20194;-82
2021/07/15 19:58:43;;;;;;;5.45;1.49;;;;;;;19.38;87.91;99241.84;2005053;81;20167;-84
2021/07/15 20:01:46;;;;;;;4.56;1.55;;;;;;;19.31;88.26;99244.75;2008344;78;31967;-84
2021/07/15 20:04:50;;;;;;;5.84;1.58;;;;;;;19.25;88.63;99247.66;2005604;81;20280;-77
2021/07/15 20:07:54;;;;;;;4.93;1.40;;;;;;;19.21;88.96;99251.34;2006537;81;20170;-83
2021/07/15 20:10:57;;;;;;;4.74;1.31;;;;;;;19.17;89.12;99254.16;2011690;81;20174;-79
2021/07/15 20:14:00;;;;;;;3.03;1.27;;;;;;;19.14;89.36;99265.66;1998586;81;20216;-79
2021/07/15 20:17:04;;;;;;;4.03;1.88;;;;;;;19.10;89.50;99264.09;1997416;78;38446;-80
2021/07/15 20:24:24;;;;;;;2.65;2.44;;;;;;;19.07;89.56;99266.84;2003167;81;20214;-81
2021/07/15 20:27:27;;;;;;;7.57;2.75;;;;;;;19.05;89.58;99276.59;2002012;81;20235;-78
2021/07/15 20:30:31;;;;;;;7.46;2.83;;;;;;;19.06;89.94;99280.94;1998046;78;37760;-79
2021/07/15 20:34:01;;;;;;;3.40;2.54;;;;;;;19.04;90.16;99274.88;1999124;81;20927;-79
2021/07/15 20:37:05;;;;;;;4.36;2.45;;;;;;;18.99;89.99;99275.03;1999261;81;20213;-74
2021/07/15 20:40:10;;;;;;;6.30;2.51;;;;;;;18.93;90.03;99266.56;1993309;81;20198;-77
2021/07/15 20:43:18;;;;;;;6.95;2.44;;;;;;;18.85;90.03;99266.88;1999760;81;21272;-78
2021/07/15 20:46:22;;;;;;;4.61;2.54;;;;;;;18.83;90.08;99263.41;1999123;78;20557;-81
2021/07/15 20:49:25;;;;;;;6.96;2.70;;;;;;;18.80;90.17;99252.16;2003012;81;20178;-82
2021/07/15 20:52:31;;;;;;;4.69;2.64;;;;;;;18.74;90.05;99253.28;1997240;81;20174;-80
2021/07/15 20:55:35;;;;;;;5.65;2.78;;;;;;;18.68;89.96;99251.75;2000216;81;20171;-80
2021/07/15 20:58:44;;;;;;;4.97;2.66;;;;;;;18.60;90.02;99253.78;1999804;81;20178;-80
2021/07/15 21:01:47;;;;;;;4.26;2.53;;;;;;;18.50;90.08;99268.22;2003660;78;21377;-80
2021/07/15 21:04:52;;;;;;;3.66;2.86;;;;;;;18.47;90.29;99278.84;2001138;81;20297;-80
2021/07/15 21:07:55;;;;;;;2.92;2.72;;;;;;;18.45;90.35;99290.31;1999102;81;20192;-80
2021/07/15 21:11:03;;;;;;;8.45;3.20;;;;;;;18.37;90.38;99272.22;2004193;81;20592;-80
2021/07/15 21:14:07;;;;;;;3.70;2.90;;;;;;;18.27;90.60;99271.72;2002127;81;20223;-80
2021/07/15 21:17:13;;;;;;;5.21;2.67;;;;;;;18.23;90.95;99271.88;1999382;78;22823;-80
2021/07/15 21:24:59;;;;;;;4.06;2.71;;;;;;;18.13;91.50;99276.63;1998642;81;20323;-80
2021/07/15 21:28:05;;;;;;;3.19;2.89;;;;;;;18.07;91.83;99295.25;2000694;81;20178;-80
2021/07/15 21:31:09;;;;;;;5.93;3.16;;;;;;;18.03;91.97;99297.13;2001140;81;23394;-81
2021/07/15 21:34:13;;;;;;;2.59;2.39;;;;;;;18.02;92.07;99297.19;2003885;81;20187;-80
2021/07/15 21:37:16;;;;;;;5.40;2.47;;;;;;;17.98;91.96;99279.81;2001610;81;20178;-80
2021/07/15 21:40:19;;;;;;;5.44;2.76;;;;;;;17.95;91.96;99307.03;2001620;81;20561;-80
2021/07/15 21:43:23;;;;;;;3.42;2.35;;;;;;;17.94;92.04;99310.59;1999275;81;20761;-79
2021/07/15 21:46:26;;;;;;;4.97;2.31;;;;;;;17.91;91.92;99326.47;1998525;79;20196;-79
2021/07/15 21:49:45;;;;;;;4.56;2.04;;;;;;;17.90;91.91;99335.25;1999070;81;20780;-79
2021/07/15 21:52:50;;;;;;;2.29;2.13;;;;;;;17.88;91.80;99339.72;1997440;81;20662;-79
2021/07/15 21:55:53;;;;;;;2.59;2.28;;;;;;;17.85;91.80;99336.34;1997745;81;20182;-79
2021/07/15 21:58:57;;;;;;;4.71;2.56;;;;;;;17.83;91.81;99338.16;1997289;81;20652;-80
2021/07/15 22:02:01;;;;;;;3.59;2.11;;;;;;;17.78;91.81;99341.81;1997154;81;23997;-80
2021/07/15 22:05:10;;;;;;;3.80;1.86;;;;;;;17.74;92.07;99348.06;1993692;81;20295;-79
2021/07/15 22:08:15;;;;;;;6.64;1.90;;;;;;;17.72;92.25;99344.63;1997723;81;20320;-79
2021/07/15 22:11:20;;;;;;;4.50;2.33;;;;;;;17.69;92.11;99352.63;1993188;81;20182;-79
2021/07/15 22:14:24;;;;;;;5.86;1.96;;;;;;;17.61;92.14;99357.25;1997947;81;20234;-79
2021/07/15 22:17:27;;;;;;;7.54;2.34;;;;;;;17.53;92.26;99359.25;1996182;78;23549;-78
2021/07/15 22:20:52;;;;;;;10.21;2.09;;;;;;;17.47;92.56;99365.56;1997380;81;21286;-79
2021/07/15 22:23:55;;;;;;;6.44;1.83;;;;;;;17.45;92.93;99370.03;1997658;81;20216;-80
2021/07/15 22:26:59;;;;;;;5.28;1.63;;;;;;;17.45;93.21;99363.91;1998241;81;20279;-80
2021/07/15 22:30:21;;;;;;;5.04;1.51;;;;;;;17.44;93.41;99365.69;1997196;78;20830;-79
2021/07/15 22:33:30;;;;;;;1.90;1.80;;;;;;;17.45;93.73;99367.41;1998518;81;20194;-79
2021/07/15 22:36:42;;;;;;;4.60;2.00;;;;;;;17.48;93.85;99369.91;1998077;81;20239;-82
2021/07/15 22:39:54;;;;;;;7.50;1.30;;;;;;;17.48;93.89;99369.06;1997284;81;20196;-78
2021/07/15 22:47:28;;;;;;;2.70;1.26;;;;;;;17.41;93.90;99371.00;1997276;79;21036;-79
2021/07/15 22:50:32;;;;;;;2.97;1.44;;;;;;;17.38;93.65;99373.72;1997146;81;20191;-80
2021/07/15 22:53:36;;;;;;;1.45;1.33;;;;;;;17.34;93.53;99373.88;1997662;81;20318;-80
2021/07/15 22:56:39;;;;;;;2.91;1.35;;;;;;;17.32;93.61;99371.31;1997582;81;20198;-79
2021/07/15 22:59:43;;;;;;;4.57;1.26;;;;;;;17.31;93.63;99361.72;1996855;81;20340;-80
2021/07/15 23:02:48;;;;;;;3.24;1.60;;;;;;;17.32;94.05;99362.59;1998320;78;20596;-80
2021/07/15 23:06:19;;;;;;;5.09;1.80;;;;;;;17.34;94.25;99366.00;1997923;81;20862;-79
2021/07/15 23:09:23;;;;;;;4.59;1.52;;;;;;;17.35;94.35;99375.59;1998312;81;20166;-79
2021/07/15 23:12:27;;;;;;;7.06;2.05;;;;;;;17.36;94.32;99375.56;1996838;81;20202;-78
2021/07/15 23:15:39;;;;;;;2.96;1.58;;;;;;;17.34;94.36;99372.13;1996952;81;23353;-79
2021/07/15 23:18:43;;;;;;;8.43;1.64;;;;;;;17.31;94.36;99368.75;1997177;81;20202;-79
2021/07/15 23:21:46;;;;;;;8.85;1.50;;;;;;;17.25;94.45;99364.56;1997370;81;20718;-78
2021/07/15 23:24:50;;;;;;;16.38;2.01;;;;;;;17.20;94.50;99366.44;1997821;81;20682;-78
2021/07/15 23:27:54;;;;;;;4.16;1.85;;;;;;;17.18;94.58;99366.50;1996922;81;20218;-78
2021/07/15 23:30:58;;;;;;;2.29;1.95;;;;;;;17.21;94.62;99373.41;1998152;78;20224;-79
2021/07/15 23:34:17;;;;;;;3.86;2.78;;;;;;;17.23;94.55;99379.47;2034513;70;20280;-74
2021/07/15 23:37:21;;;;;;;4.47;2.61;;;;;;;17.26;94.34;99375.91;1992564;81;20218;-74
2021/07/15 23:40:24;;;;;;;3.97;2.63;;;;;;;17.25;94.31;99375.06;1992837;81;20167;-74
2021/07/15 23:43:27;;;;;;;4.50;2.67;;;;;;;17.26;94.39;99379.41;1992716;81;20672;-75
2021/07/15 23:46:39;;;;;;;5.94;2.01;;;;;;;17.26;94.63;99379.41;1994466;79;22801;-75
2021/07/15 23:49:42;;;;;;;4.54;2.64;;;;;;;17.27;94.80;99380.25;1997259;81;20190;-75
2021/07/15 23:52:47;;;;;;;5.40;2.81;;;;;;;17.31;94.65;99382.72;1997224;81;20259;-75
2021/07/15 23:55:50;;;;;;;4.26;2.63;;;;;;;17.33;94.53;99372.19;1997118;81;20219;-75
2021/07/15 23:59:00;;;;;;;6.13;2.53;;;;;;;17.34;94.37;99373.88;1997384;81;20625;-75
